Time;durP1;ratioP1;P1;durP2;ratioP2;P2;SDS_P1;SDS_P2;PMS_P1;PMS_P2;Temp;Humidity;BMP_temperature;BMP_pressure;BME280_temperature;BME280_humidity;BME280_pressure;Samples;Min_cycle;Max_cycle;Signal;HPM_P1;HPM_P2
2021/08/11 00:01:46;;;;;;;;;13.33;13.33;;;;;;;;3539000;39;113719;-81
2021/08/11 00:04:12;;;;;;;;;16.00;15.67;;;;;;;;3538164;39;113874;-80
2021/08/11 00:06:39;;;;;;;;;20.67;19.00;;;;;;;;3538693;39;112486;-81
2021/08/11 00:09:07;;;;;;;;;18.00;15.67;;;;;;;;3539733;39;113200;-81
2021/08/11 00:11:34;;;;;;;;;17.67;16.67;;;;;;;;3537690;39;114297;-81
2021/08/11 00:14:02;;;;;;;;;18.00;17.00;;;;;;;;3537976;39;111824;-81
2021/08/11 00:16:29;;;;;;;;;17.67;17.00;;;;;;;;3535998;39;113333;-81
2021/08/11 00:18:58;;;;;;;;;18.00;17.67;;;;;;;;3541811;39;111939;-81
2021/08/11 00:21:25;;;;;;;;;20.00;18.00;;;;;;;;3538348;39;113780;-81
2021/08/11 00:23:52;;;;;;;;;18.33;18.33;;;;;;;;3538918;39;114428;-81
2021/08/11 00:26:20;;;;;;;;;20.33;17.67;;;;;;;;3538818;39;111952;-80
2021/08/11 00:28:46;;;;;;;;;11.33;8.67;;;;;;;;3539468;39;113337;-81
2021/08/11 00:31:13;;;;;;;;;20.00;18.00;;;;;;;;3534906;39;113734;-81
2021/08/11 00:33:39;;;;;;;;;19.67;17.33;;;;;;;;3539740;39;111775;-81
2021/08/11 00:36:06;;;;;;;;;21.33;20.00;;;;;;;;3538485;39;113749;-81
2021/08/11 00:38:33;;;;;;;;;19.00;18.67;;;;;;;;3542473;39;113856;-81
2021/08/11 00:40:59;;;;;;;;;16.67;16.67;;;;;;;;3538499;39;113346;-81
2021/08/11 00:43:27;;;;;;;;;17.00;17.00;;;;;;;;3539309;39;113915;-81
2021/08/11 00:45:54;;;;;;;;;18.67;17.67;;;;;;;;3538652;39;112253;-80
2021/08/11 00:48:21;;;;;;;;;20.33;20.00;;;;;;;;3539194;39;113488;-80
2021/08/11 00:50:47;;;;;;;;;17.00;16.00;;;;;;;;3538407;39;114566;-81
2021/08/11 00:53:17;;;;;;;;;16.33;15.33;;;;;;;;3538754;39;112023;-81
2021/08/11 21:23:03;;;;;;;;;26.33;26.33;;;;;;;;2572344;38;149435;-75
2021/08/11 21:25:31;;;;;;;;;22.67;22.00;;;;;;;;2788219;30;150855;-74
2021/08/11 21:27:59;;;;;;;;;28.00;25.00;;;;;;;;2570230;30;149577;-75
2021/08/11 21:30:28;;;;;;;;;23.67;22.33;;;;;;;;2570550;30;150667;-74
2021/08/11 21:32:56;;;;;;;;;32.00;29.00;;;;;;;;2567648;30;152070;-74
2021/08/11 21:35:24;;;;;;;;;19.00;18.67;;;;;;;;2568257;38;150555;-75
2021/08/11 21:37:53;;;;;;;;;24.00;24.00;;;;;;;;2568911;30;150637;-75
2021/08/11 21:40:22;;;;;;;;;27.33;25.67;;;;;;;;2570003;30;152088;-74
2021/08/11 21:42:51;;;;;;;;;26.00;23.00;;;;;;;;2574027;30;149212;-75
2021/08/11 21:45:19;;;;;;;;;22.50;20.50;;;;;;;;2568600;38;152963;-75
2021/08/11 21:47:47;;;;;;;;;18.33;17.33;;;;;;;;2571430;30;149610;-76
2021/08/11 21:50:18;;;;;;;;;20.00;20.00;;;;;;;;2572643;30;151680;-74
2021/08/11 21:52:46;;;;;;;;;26.67;24.00;;;;;;;;2567680;38;150996;-75
2021/08/11 21:55:14;;;;;;;;;29.33;25.67;;;;;;;;2569085;30;149433;-74
2021/08/11 21:57:44;;;;;;;;;27.67;23.67;;;;;;;;2569298;30;151416;-75
2021/08/11 22:00:15;;;;;;;;;18.67;18.67;;;;;;;;2572188;30;151554;-72
2021/08/11 22:02:43;;;;;;;;;24.33;21.33;;;;;;;;2572191;30;151266;-72
2021/08/11 22:05:12;;;;;;;;;21.33;19.33;;;;;;;;2571156;30;151545;-74
2021/08/11 22:07:41;;;;;;;;;24.00;23.67;;;;;;;;2569456;30;149815;-70
2021/08/11 22:10:10;;;;;;;;;20.00;19.67;;;;;;;;2568877;38;150738;-74
2021/08/11 22:12:38;;;;;;;;;18.33;17.33;;;;;;;;2570695;30;151242;-73
2021/08/11 22:15:09;;;;;;;;;23.33;22.00;;;;;;;;2568787;30;150321;-72
2021/08/11 22:17:38;;;;;;;;;25.00;23.00;;;;;;;;2566671;38;150672;-72
2021/08/11 22:20:09;;;;;;;;;20.33;19.33;;;;;;;;2569119;30;152397;-73
2021/08/11 22:22:37;;;;;;;;;18.67;16.67;;;;;;;;2567329;30;150616;-71
2021/08/11 22:25:06;;;;;;;;;21.67;19.33;;;;;;;;2570145;38;150672;-71
2021/08/11 22:27:34;;;;;;;;;16.67;15.33;;;;;;;;2570118;38;151492;-72
2021/08/11 22:30:03;;;;;;;;;20.33;19.67;;;;;;;;2567918;38;150624;-71
2021/08/11 22:32:32;;;;;;;;;18.00;16.00;;;;;;;;2568227;30;151119;-72
2021/08/11 22:35:01;;;;;;;;;22.00;20.00;;;;;;;;2567191;30;151168;-72
2021/08/11 22:37:29;;;;;;;;;21.67;21.00;;;;;;;;2569345;30;151368;-72
2021/08/11 22:39:58;;;;;;;;;18.67;17.67;;;;;;;;2565583;38;151194;-72
2021/08/11 22:42:26;;;;;;;;;16.67;15.67;;;;;;;;2565835;30;149674;-76
2021/08/11 22:44:54;;;;;;;;;19.00;15.67;;;;;;;;2567875;30;151669;-76
2021/08/11 22:47:23;;;;;;;;;18.00;18.00;;;;;;;;2569927;30;150995;-77
2021/08/11 22:49:53;;;;;;;;;18.00;17.00;;;;;;;;2567868;38;149646;-75
2021/08/11 22:52:21;;;;;;;;;20.67;20.67;;;;;;;;2567850;30;151169;-76
2021/08/11 22:54:49;;;;;;;;;18.00;18.00;;;;;;;;2565676;30;149871;-76
2021/08/11 22:57:17;;;;;;;;;22.33;22.33;;;;;;;;2568161;30;150898;-76
2021/08/11 22:59:46;;;;;;;;;16.67;16.67;;;;;;;;2568021;30;151730;-76
2021/08/11 23:02:14;;;;;;;;;20.00;19.67;;;;;;;;2570909;30;149682;-76
2021/08/11 23:04:43;;;;;;;;;20.00;18.00;;;;;;;;2567684;38;150682;-76
2021/08/11 23:07:12;;;;;;;;;18.67;16.33;;;;;;;;2568073;30;150963;-77
2021/08/11 23:09:40;;;;;;;;;20.33;19.67;;;;;;;;2564808;38;149718;-75
2021/08/11 23:12:09;;;;;;;;;26.00;25.00;;;;;;;;2566748;30;150500;-75
2021/08/11 23:14:38;;;;;;;;;31.75;29.50;;;;;;;;2566920;38;149600;-75
2021/08/11 23:17:06;;;;;;;;;15.67;15.00;;;;;;;;2565339;38;151186;-76
2021/08/11 23:19:34;;;;;;;;;17.67;17.67;;;;;;;;2568227;30;152224;-74
2021/08/11 23:22:03;;;;;;;;;14.67;12.67;;;;;;;;2569160;30;149402;-76
2021/08/11 23:24:32;;;;;;;;;15.67;15.00;;;;;;;;2565036;30;151448;-76
2021/08/11 23:27:01;;;;;;;;;17.67;15.00;;;;;;;;2564549;38;151859;-76
2021/08/11 23:29:29;;;;;;;;;18.33;18.33;;;;;;;;2568595;30;149420;-75
2021/08/11 23:31:57;;;;;;;;;18.00;17.00;;;;;;;;2567441;30;151117;-75
2021/08/11 23:34:25;;;;;;;;;24.00;21.00;;;;;;;;2566047;30;149937;-75
2021/08/11 23:36:54;;;;;;;;;23.00;23.00;;;;;;;;2564560;38;150990;-76
2021/08/11 23:39:22;;;;;;;;;20.00;19.00;;;;;;;;2564976;38;151087;-75
2021/08/11 23:41:53;;;;;;;;;21.00;18.00;;;;;;;;2566677;30;150249;-74
2021/08/11 23:44:22;;;;;;;;;21.00;20.00;;;;;;;;2566215;30;151243;-75
2021/08/11 23:46:50;;;;;;;;;22.00;21.00;;;;;;;;2565595;38;151806;-76
2021/08/11 23:49:19;;;;;;;;;22.00;19.00;;;;;;;;2566588;38;149712;-74
2021/08/11 23:51:47;;;;;;;;;19.00;17.00;;;;;;;;2566699;38;150638;-75
2021/08/11 23:54:15;;;;;;;;;19.67;18.00;;;;;;;;2568876;30;151897;-75
2021/08/11 23:56:43;;;;;;;;;19.33;18.00;;;;;;;;2569709;30;150371;-75
2021/08/11 23:59:14;;;;;;;;;16.33;15.00;;;;;;;;2564996;38;151398;-75
